sensor_id;sensor_type;location;lat;lon;timestamp;pressure;altitude;pressure_sealevel;temperature;humidity
56040;BME280;43937;41.366;2.072;2023-11-22T00:05:30;100632.25;;;14.91;47.90
56040;BME280;43937;41.366;2.072;2023-11-22T00:11:51;100606.50;;;14.85;47.40
56040;BME280;43937;41.366;2.072;2023-11-22T00:22:35;100604.50;;;14.72;48.15
56040;BME280;43937;41.366;2.072;2023-11-22T00:27:56;100579.78;;;14.44;48.66
56040;BME280;43937;41.366;2.072;2023-11-22T00:30:42;100589.47;;;14.61;48.07
56040;BME280;43937;41.366;2.072;2023-11-22T00:35:21;100587.97;;;14.59;48.62
56040;BME280;43937;41.366;2.072;2023-11-22T00:38:10;100592.94;;;14.55;48.35
56040;BME280;43937;41.366;2.072;2023-11-22T00:41:30;100602.75;;;14.64;48.33
56040;BME280;43937;41.366;2.072;2023-11-22T00:43:55;100593.50;;;14.65;47.90
56040;BME280;43937;41.366;2.072;2023-11-22T00:46:20;100606.00;;;14.53;48.72
56040;BME280;43937;41.366;2.072;2023-11-22T00:52:33;100594.06;;;14.61;47.93
56040;BME280;43937;41.366;2.072;2023-11-22T00:55:35;100601.16;;;14.55;48.25
56040;BME280;43937;41.366;2.072;2023-11-22T01:02:21;100578.53;;;14.47;47.55
56040;BME280;43937;41.366;2.072;2023-11-22T01:06:10;100588.22;;;14.49;47.92
56040;BME280;43937;41.366;2.072;2023-11-22T01:12:40;100591.00;;;14.71;47.21
56040;BME280;43937;41.366;2.072;2023-11-22T01:19:19;100596.88;;;14.68;46.11
56040;BME280;43937;41.366;2.072;2023-11-22T01:21:44;100579.56;;;14.67;46.04
56040;BME280;43937;41.366;2.072;2023-11-22T01:24:10;100588.03;;;14.51;46.36
56040;BME280;43937;41.366;2.072;2023-11-22T01:28:04;100598.56;;;14.69;46.27
56040;BME280;43937;41.366;2.072;2023-11-22T01:40:51;100592.19;;;14.61;46.81
56040;BME280;43937;41.366;2.072;2023-11-22T01:49:46;100608.38;;;14.56;46.30
56040;BME280;43937;41.366;2.072;2023-11-22T01:55:15;100613.25;;;14.46;46.45
56040;BME280;43937;41.366;2.072;2023-11-22T01:57:41;100596.59;;;14.41;46.89
56040;BME280;43937;41.366;2.072;2023-11-22T02:00:54;100606.09;;;14.45;47.18
56040;BME280;43937;41.366;2.072;2023-11-22T02:03:19;100601.03;;;14.42;47.06
56040;BME280;43937;41.366;2.072;2023-11-22T02:05:46;100599.13;;;14.42;47.63
56040;BME280;43937;41.366;2.072;2023-11-22T02:10:18;100605.13;;;14.31;48.22
56040;BME280;43937;41.366;2.072;2023-11-22T02:15:52;100605.44;;;14.21;48.07
56040;BME280;43937;41.366;2.072;2023-11-22T02:23:10;100557.66;;;14.03;47.88
56040;BME280;43937;41.366;2.072;2023-11-22T02:25:36;100582.91;;;14.19;48.13
56040;BME280;43937;41.366;2.072;2023-11-22T02:32:44;100579.78;;;14.23;48.03
56040;BME280;43937;41.366;2.072;2023-11-22T02:38:14;100577.41;;;13.98;48.56
56040;BME280;43937;41.366;2.072;2023-11-22T02:49:19;100603.91;;;14.19;48.99
56040;BME280;43937;41.366;2.072;2023-11-22T02:52:35;100592.28;;;14.10;49.13
56040;BME280;43937;41.366;2.072;2023-11-22T02:55:42;100599.44;;;14.11;49.14
56040;BME280;43937;41.366;2.072;2023-11-22T02:58:07;100616.34;;;14.00;49.70
56040;BME280;43937;41.366;2.072;2023-11-22T03:06:57;100577.78;;;13.95;49.66
56040;BME280;43937;41.366;2.072;2023-11-22T03:10:06;100619.25;;;14.13;49.59
56040;BME280;43937;41.366;2.072;2023-11-22T03:31:21;100625.59;;;13.99;50.64
56040;BME280;43937;41.366;2.072;2023-11-22T03:33:47;100638.00;;;13.80;51.13
56040;BME280;43937;41.366;2.072;2023-11-22T03:36:12;100636.84;;;13.89;51.19
56040;BME280;43937;41.366;2.072;2023-11-22T03:38:41;100627.81;;;13.74;51.10
56040;BME280;43937;41.366;2.072;2023-11-22T03:46:45;100628.28;;;13.78;50.94
56040;BME280;43937;41.366;2.072;2023-11-22T03:49:30;100629.81;;;13.65;51.93
56040;BME280;43937;41.366;2.072;2023-11-22T03:51:56;100645.91;;;13.75;51.53
56040;BME280;43937;41.366;2.072;2023-11-22T03:54:32;100642.72;;;13.71;51.58
56040;BME280;43937;41.366;2.072;2023-11-22T04:05:17;100611.78;;;13.56;51.59
56040;BME280;43937;41.366;2.072;2023-11-22T04:07:45;100602.09;;;13.54;51.66
56040;BME280;43937;41.366;2.072;2023-11-22T04:12:15;100563.38;;;13.12;51.99
56040;BME280;43937;41.366;2.072;2023-11-22T04:16:05;100638.31;;;13.56;52.09
56040;BME280;43937;41.366;2.072;2023-11-22T04:18:36;100633.69;;;13.56;51.62
56040;BME280;43937;41.366;2.072;2023-11-22T04:21:45;100611.34;;;13.38;51.87
56040;BME280;43937;41.366;2.072;2023-11-22T04:32:32;100640.84;;;13.57;51.06
56040;BME280;43937;41.366;2.072;2023-11-22T04:52:14;100635.66;;;13.47;51.19
56040;BME280;43937;41.366;2.072;2023-11-22T04:55:12;100623.38;;;13.43;51.07
56040;BME280;43937;41.366;2.072;2023-11-22T05:03:06;100636.88;;;13.45;51.25
56040;BME280;43937;41.366;2.072;2023-11-22T05:12:52;100649.72;;;13.59;51.07
56040;BME280;43937;41.366;2.072;2023-11-22T05:15:18;100648.28;;;13.63;51.14
56040;BME280;43937;41.366;2.072;2023-11-22T05:17:43;100640.34;;;13.39;51.37
56040;BME280;43937;41.366;2.072;2023-11-22T05:22:32;100636.19;;;13.43;50.85
56040;BME280;43937;41.366;2.072;2023-11-22T05:26:32;100641.09;;;13.33;52.13
56040;BME280;43937;41.366;2.072;2023-11-22T05:30:18;100634.31;;;13.28;51.98
56040;BME280;43937;41.366;2.072;2023-11-22T05:33:42;100637.38;;;13.11;52.49
56040;BME280;43937;41.366;2.072;2023-11-22T05:36:08;100642.56;;;13.20;52.02
56040;BME280;43937;41.366;2.072;2023-11-22T05:52:22;100619.84;;;13.05;52.03
56040;BME280;43937;41.366;2.072;2023-11-22T05:55:37;100588.44;;;13.01;51.61
56040;BME280;43937;41.366;2.072;2023-11-22T05:58:59;100640.69;;;13.21;51.81
56040;BME280;43937;41.366;2.072;2023-11-22T06:05:06;100647.31;;;13.26;51.23
56040;BME280;43937;41.366;2.072;2023-11-22T06:07:32;100644.31;;;13.36;50.60
56040;BME280;43937;41.366;2.072;2023-11-22T06:15:46;100651.09;;;13.40;49.92
56040;BME280;43937;41.366;2.072;2023-11-22T06:22:24;100649.84;;;13.28;49.58
56040;BME280;43937;41.366;2.072;2023-11-22T06:24:49;100656.19;;;13.43;49.21
56040;BME280;43937;41.366;2.072;2023-11-22T06:29:31;100674.59;;;13.49;48.82
56040;BME280;43937;41.366;2.072;2023-11-22T06:31:56;100667.31;;;13.42;49.54
56040;BME280;43937;41.366;2.072;2023-11-22T06:43:11;100654.91;;;13.16;49.45
56040;BME280;43937;41.366;2.072;2023-11-22T06:45:37;100677.50;;;13.33;49.24
56040;BME280;43937;41.366;2.072;2023-11-22T06:50:42;100688.44;;;13.48;48.86
56040;BME280;43937;41.366;2.072;2023-11-22T07:06:27;100718.34;;;13.64;48.45
56040;BME280;43937;41.366;2.072;2023-11-22T07:11:21;100716.19;;;13.74;48.34
56040;BME280;43937;41.366;2.072;2023-11-22T07:15:36;100698.72;;;13.61;48.45
56040;BME280;43937;41.366;2.072;2023-11-22T07:22:39;100710.50;;;13.61;48.74
56040;BME280;43937;41.366;2.072;2023-11-22T07:25:34;100713.06;;;13.63;48.41
56040;BME280;43937;41.366;2.072;2023-11-22T07:31:48;100695.22;;;13.52;47.92
56040;BME280;43937;41.366;2.072;2023-11-22T07:35:52;100722.44;;;13.83;47.40
56040;BME280;43937;41.366;2.072;2023-11-22T07:38:17;100721.56;;;14.12;47.11
56040;BME280;43937;41.366;2.072;2023-11-22T07:44:19;100732.72;;;14.11;46.39
56040;BME280;43937;41.366;2.072;2023-11-22T07:46:44;100720.16;;;13.87;47.32
56040;BME280;43937;41.366;2.072;2023-11-22T07:49:10;100735.91;;;14.14;46.61
56040;BME280;43937;41.366;2.072;2023-11-22T07:51:35;100730.44;;;14.00;47.12
56040;BME280;43937;41.366;2.072;2023-11-22T07:57:55;100721.09;;;13.94;46.71
56040;BME280;43937;41.366;2.072;2023-11-22T08:00:21;100730.81;;;14.26;46.15
56040;BME280;43937;41.366;2.072;2023-11-22T08:03:07;100724.38;;;14.19;45.99
56040;BME280;43937;41.366;2.072;2023-11-22T08:13:08;100723.38;;;14.71;44.15
56040;BME280;43937;41.366;2.072;2023-11-22T08:17:27;100695.75;;;14.73;43.42
56040;BME280;43937;41.366;2.072;2023-11-22T08:25:13;100742.88;;;20.14;33.93
56040;BME280;43937;41.366;2.072;2023-11-22T08:37:03;100715.09;;;20.28;32.08
56040;BME280;43937;41.366;2.072;2023-11-22T08:39:59;100739.09;;;18.84;34.52
56040;BME280;43937;41.366;2.072;2023-11-22T08:43:51;100721.03;;;17.45;36.56
56040;BME280;43937;41.366;2.072;2023-11-22T08:46:17;100721.69;;;17.47;36.71
56040;BME280;43937;41.366;2.072;2023-11-22T08:54:50;100730.13;;;17.05;37.54
56040;BME280;43937;41.366;2.072;2023-11-22T09:03:35;100728.44;;;17.24;37.69
56040;BME280;43937;41.366;2.072;2023-11-22T09:06:01;100721.88;;;17.18;37.35
56040;BME280;43937;41.366;2.072;2023-11-22T09:12:27;100718.06;;;17.53;36.91
56040;BME280;43937;41.366;2.072;2023-11-22T09:38:28;100717.03;;;18.39;35.09
56040;BME280;43937;41.366;2.072;2023-11-22T09:48:58;100693.09;;;19.34;29.45
56040;BME280;43937;41.366;2.072;2023-11-22T09:54:49;100707.13;;;19.83;29.26
56040;BME280;43937;41.366;2.072;2023-11-22T09:58:30;100699.59;;;19.90;28.55
56040;BME280;43937;41.366;2.072;2023-11-22T10:00:56;100713.88;;;20.24;28.07
56040;BME280;43937;41.366;2.072;2023-11-22T10:08:35;100758.13;;;20.61;27.50
56040;BME280;43937;41.366;2.072;2023-11-22T10:11:03;100759.44;;;20.88;27.48
56040;BME280;43937;41.366;2.072;2023-11-22T10:13:50;100749.53;;;20.80;26.89
56040;BME280;43937;41.366;2.072;2023-11-22T10:30:32;100782.31;;;20.95;29.77
56040;BME280;43937;41.366;2.072;2023-11-22T10:44:59;100760.63;;;20.44;27.18
56040;BME280;43937;41.366;2.072;2023-11-22T10:52:08;100755.03;;;20.13;28.19
56040;BME280;43937;41.366;2.072;2023-11-22T10:55:31;100766.72;;;20.52;27.47
56040;BME280;43937;41.366;2.072;2023-11-22T10:58:01;100771.31;;;20.40;27.53
56040;BME280;43937;41.366;2.072;2023-11-22T11:00:31;100758.19;;;20.54;27.32
56040;BME280;43937;41.366;2.072;2023-11-22T11:10:00;100781.78;;;20.56;28.37
56040;BME280;43937;41.366;2.072;2023-11-22T11:14:43;100773.75;;;20.48;28.32
56040;BME280;43937;41.366;2.072;2023-11-22T11:19:07;100755.09;;;20.25;28.40
56040;BME280;43937;41.366;2.072;2023-11-22T11:21:33;100779.97;;;20.44;29.08
56040;BME280;43937;41.366;2.072;2023-11-22T11:34:27;100775.84;;;20.34;30.37
56040;BME280;43937;41.366;2.072;2023-11-22T11:40:26;100780.81;;;20.44;29.67
56040;BME280;43937;41.366;2.072;2023-11-22T11:50:04;100773.75;;;20.48;29.78
56040;BME280;43937;41.366;2.072;2023-11-22T11:54:17;100763.94;;;20.71;29.12
56040;BME280;43937;41.366;2.072;2023-11-22T11:56:43;100779.97;;;20.80;29.22
56040;BME280;43937;41.366;2.072;2023-11-22T11:59:21;100783.44;;;20.76;29.18
56040;BME280;43937;41.366;2.072;2023-11-22T12:15:45;100765.16;;;21.05;28.32
56040;BME280;43937;41.366;2.072;2023-11-22T12:38:24;100816.94;;;21.16;22.89
56040;BME280;43937;41.366;2.072;2023-11-22T12:41:26;100822.75;;;20.96;23.26
56040;BME280;43937;41.366;2.072;2023-11-22T12:44:06;100807.91;;;21.21;23.01
56040;BME280;43937;41.366;2.072;2023-11-22T12:48:23;100802.84;;;21.18;22.78
56040;BME280;43937;41.366;2.072;2023-11-22T13:01:45;100773.81;;;20.97;21.88
56040;BME280;43937;41.366;2.072;2023-11-22T13:07:24;100766.78;;;21.24;21.61
56040;BME280;43937;41.366;2.072;2023-11-22T13:11:13;100783.72;;;21.16;21.33
56040;BME280;43937;41.366;2.072;2023-11-22T13:13:39;100747.44;;;20.94;20.93
56040;BME280;43937;41.366;2.072;2023-11-22T13:16:05;100737.38;;;21.12;21.18
56040;BME280;43937;41.366;2.072;2023-11-22T13:18:54;100771.13;;;21.32;21.26
56040;BME280;43937;41.366;2.072;2023-11-22T13:23:26;100736.91;;;20.85;20.53
56040;BME280;43937;41.366;2.072;2023-11-22T13:33:33;100762.44;;;21.17;19.91
56040;BME280;43937;41.366;2.072;2023-11-22T13:39:50;100786.03;;;20.89;19.91
56040;BME280;43937;41.366;2.072;2023-11-22T13:55:01;100788.91;;;21.13;20.08
56040;BME280;43937;41.366;2.072;2023-11-22T14:06:41;100792.13;;;21.10;19.75
56040;BME280;43937;41.366;2.072;2023-11-22T14:09:07;100756.06;;;20.86;20.34
56040;BME280;43937;41.366;2.072;2023-11-22T14:20:41;100812.59;;;20.90;19.93
56040;BME280;43937;41.366;2.072;2023-11-22T14:31:52;100803.31;;;20.85;19.70
56040;BME280;43937;41.366;2.072;2023-11-22T14:34:17;100810.78;;;21.14;19.76
56040;BME280;43937;41.366;2.072;2023-11-22T14:36:43;100794.44;;;21.13;19.46
56040;BME280;43937;41.366;2.072;2023-11-22T14:41:58;100816.69;;;21.06;19.38
56040;BME280;43937;41.366;2.072;2023-11-22T14:46:09;100809.16;;;20.95;19.33
56040;BME280;43937;41.366;2.072;2023-11-22T14:48:34;100823.63;;;20.97;20.15
56040;BME280;43937;41.366;2.072;2023-11-22T15:01:52;100813.38;;;21.27;20.54
56040;BME280;43937;41.366;2.072;2023-11-22T15:06:07;100783.50;;;20.69;20.43
56040;BME280;43937;41.366;2.072;2023-11-22T15:25:29;100863.34;;;20.84;22.56
56040;BME280;43937;41.366;2.072;2023-11-22T15:41:50;100887.56;;;20.52;23.14
56040;BME280;43937;41.366;2.072;2023-11-22T15:44:16;100895.84;;;20.27;23.26
56040;BME280;43937;41.366;2.072;2023-11-22T15:46:42;100898.22;;;19.98;23.72
56040;BME280;43937;41.366;2.072;2023-11-22T15:59:34;100918.38;;;19.74;23.76
56040;BME280;43937;41.366;2.072;2023-11-22T16:05:43;100921.91;;;19.49;23.79
56040;BME280;43937;41.366;2.072;2023-11-22T16:08:08;100950.09;;;19.58;23.55
56040;BME280;43937;41.366;2.072;2023-11-22T16:10:34;100955.44;;;19.53;23.62
56040;BME280;43937;41.366;2.072;2023-11-22T16:37:29;100965.44;;;18.95;24.42
56040;BME280;43937;41.366;2.072;2023-11-22T16:42:17;100978.16;;;18.90;24.80
56040;BME280;43937;41.366;2.072;2023-11-22T16:48:26;100980.31;;;18.48;25.44
56040;BME280;43937;41.366;2.072;2023-11-22T16:59:24;101009.16;;;18.52;25.58
56040;BME280;43937;41.366;2.072;2023-11-22T17:03:13;100974.81;;;18.35;25.51
56040;BME280;43937;41.366;2.072;2023-11-22T17:14:21;101001.50;;;18.21;26.10
56040;BME280;43937;41.366;2.072;2023-11-22T17:19:05;101034.16;;;18.17;26.25
56040;BME280;43937;41.366;2.072;2023-11-22T17:25:36;101021.81;;;18.00;26.65
56040;BME280;43937;41.366;2.072;2023-11-22T17:30:14;101049.56;;;17.92;26.72
56040;BME280;43937;41.366;2.072;2023-11-22T17:32:39;101052.75;;;17.89;26.88
56040;BME280;43937;41.366;2.072;2023-11-22T17:39:03;101063.03;;;17.73;27.26
56040;BME280;43937;41.366;2.072;2023-11-22T17:42:46;101061.19;;;17.80;27.55
56040;BME280;43937;41.366;2.072;2023-11-22T17:45:11;101059.00;;;17.76;27.71
56040;BME280;43937;41.366;2.072;2023-11-22T17:56:01;101058.00;;;17.42;27.89
56040;BME280;43937;41.366;2.072;2023-11-22T17:58:28;101077.72;;;17.46;28.13
56040;BME280;43937;41.366;2.072;2023-11-22T18:02:22;101035.56;;;17.38;27.66
56040;BME280;43937;41.366;2.072;2023-11-22T18:20:11;101115.69;;;17.63;27.59
56040;BME280;43937;41.366;2.072;2023-11-22T18:29:26;101097.91;;;17.59;27.82
56040;BME280;43937;41.366;2.072;2023-11-22T18:31:52;101124.44;;;17.74;27.98
56040;BME280;43937;41.366;2.072;2023-11-22T18:34:20;101128.78;;;17.55;28.47
56040;BME280;43937;41.366;2.072;2023-11-22T18:38:07;101131.19;;;17.65;28.20
56040;BME280;43937;41.366;2.072;2023-11-22T18:41:22;101138.72;;;17.49;28.22
56040;BME280;43937;41.366;2.072;2023-11-22T18:45:05;101140.88;;;17.26;28.83
56040;BME280;43937;41.366;2.072;2023-11-22T18:47:30;101154.84;;;17.24;29.08
56040;BME280;43937;41.366;2.072;2023-11-22T18:52:27;101138.56;;;16.94;29.12
56040;BME280;43937;41.366;2.072;2023-11-22T18:57:50;101144.56;;;16.83;29.34
56040;BME280;43937;41.366;2.072;2023-11-22T19:02:27;101145.72;;;16.74;29.78
56040;BME280;43937;41.366;2.072;2023-11-22T19:09:05;101134.59;;;16.39;30.30
56040;BME280;43937;41.366;2.072;2023-11-22T19:13:58;100938.97;;;15.22;30.27
56040;BME280;43937;41.366;2.072;2023-11-22T19:21:54;101148.66;;;16.51;30.20
56040;BME280;43937;41.366;2.072;2023-11-22T19:27:32;101139.97;;;16.26;30.74
56040;BME280;43937;41.366;2.072;2023-11-22T19:32:13;101164.19;;;16.37;31.06
56040;BME280;43937;41.366;2.072;2023-11-22T19:41:23;101182.09;;;16.18;30.92
56040;BME280;43937;41.366;2.072;2023-11-22T19:49:53;101184.50;;;16.07;31.21
56040;BME280;43937;41.366;2.072;2023-11-22T19:52:28;101195.75;;;16.12;31.09
56040;BME280;43937;41.366;2.072;2023-11-22T20:03:34;101191.34;;;15.81;31.23
56040;BME280;43937;41.366;2.072;2023-11-22T20:07:05;101166.28;;;15.69;31.20
56040;BME280;43937;41.366;2.072;2023-11-22T20:12:27;101204.22;;;15.80;31.22
56040;BME280;43937;41.366;2.072;2023-11-22T20:18:45;101187.84;;;15.72;32.03
56040;BME280;43937;41.366;2.072;2023-11-22T20:22:23;101201.09;;;15.84;31.12
56040;BME280;43937;41.366;2.072;2023-11-22T20:47:43;101173.06;;;15.58;31.91
56040;BME280;43937;41.366;2.072;2023-11-22T20:50:59;101195.28;;;15.64;32.54
56040;BME280;43937;41.366;2.072;2023-11-22T21:00:28;101208.03;;;15.42;31.80
56040;BME280;43937;41.366;2.072;2023-11-22T21:08:58;101224.59;;;15.48;32.07
56040;BME280;43937;41.366;2.072;2023-11-22T21:14:47;101197.97;;;15.04;33.82
56040;BME280;43937;41.366;2.072;2023-11-22T21:18:15;101220.78;;;14.97;33.76
56040;BME280;43937;41.366;2.072;2023-11-22T21:22:19;101233.28;;;15.22;32.63
56040;BME280;43937;41.366;2.072;2023-11-22T21:26:49;101215.28;;;15.20;32.65
56040;BME280;43937;41.366;2.072;2023-11-22T21:35:22;101225.66;;;15.47;32.11
56040;BME280;43937;41.366;2.072;2023-11-22T21:38:25;101216.84;;;15.37;32.26
56040;BME280;43937;41.366;2.072;2023-11-22T21:43:56;101188.38;;;15.00;32.11
56040;BME280;43937;41.366;2.072;2023-11-22T21:54:27;101265.69;;;14.73;34.90
56040;BME280;43937;41.366;2.072;2023-11-22T21:56:52;101264.13;;;14.39;35.64
56040;BME280;43937;41.366;2.072;2023-11-22T22:03:41;101276.97;;;13.91;36.40
56040;BME280;43937;41.366;2.072;2023-11-22T22:09:57;101266.44;;;13.71;35.79
56040;BME280;43937;41.366;2.072;2023-11-22T22:12:23;101283.13;;;13.93;35.91
56040;BME280;43937;41.366;2.072;2023-11-22T22:14:48;101278.81;;;14.07;35.37
56040;BME280;43937;41.366;2.072;2023-11-22T22:18:37;101280.03;;;14.04;35.60
56040;BME280;43937;41.366;2.072;2023-11-22T22:21:03;101266.00;;;13.99;35.56
56040;BME280;43937;41.366;2.072;2023-11-22T22:25:32;101278.66;;;14.00;35.39
56040;BME280;43937;41.366;2.072;2023-11-22T22:38:05;101282.00;;;14.18;34.54
56040;BME280;43937;41.366;2.072;2023-11-22T22:43:49;101257.13;;;13.97;35.25
56040;BME280;43937;41.366;2.072;2023-11-22T22:52:24;101274.25;;;13.91;35.40
56040;BME280;43937;41.366;2.072;2023-11-22T23:05:27;101283.19;;;13.11;37.35
56040;BME280;43937;41.366;2.072;2023-11-22T23:16:35;101289.16;;;12.90;38.21
56040;BME280;43937;41.366;2.072;2023-11-22T23:21:40;101249.81;;;12.58;37.99
56040;BME280;43937;41.366;2.072;2023-11-22T23:25:18;101293.41;;;12.84;38.18
56040;BME280;43937;41.366;2.072;2023-11-22T23:28:19;101259.91;;;12.66;37.87
56040;BME280;43937;41.366;2.072;2023-11-22T23:34:53;101296.34;;;12.99;37.04
56040;BME280;43937;41.366;2.072;2023-11-22T23:37:57;101311.56;;;13.18;36.95
56040;BME280;43937;41.366;2.072;2023-11-22T23:51:18;101299.78;;;13.42;37.04
56040;BME280;43937;41.366;2.072;2023-11-22T23:54:55;101273.97;;;13.20;36.91
